sensor_id;sensor_type;location;lat;lon;timestamp;temperature;humidity
53962;DHT22;39868;53.398;6.564;2023-08-30T00:00:05;17.80;75.90
53962;DHT22;39868;53.398;6.564;2023-08-30T00:02:32;17.80;75.90
53962;DHT22;39868;53.398;6.564;2023-08-30T00:04:59;17.80;76.00
53962;DHT22;39868;53.398;6.564;2023-08-30T00:07:27;17.80;76.10
53962;DHT22;39868;53.398;6.564;2023-08-30T00:09:54;17.80;76.10
53962;DHT22;39868;53.398;6.564;2023-08-30T00:12:24;17.80;76.10
53962;DHT22;39868;53.398;6.564;2023-08-30T00:14:51;17.80;76.20
53962;DHT22;39868;53.398;6.564;2023-08-30T00:17:19;17.80;76.10
53962;DHT22;39868;53.398;6.564;2023-08-30T00:19:46;17.80;76.20
53962;DHT22;39868;53.398;6.564;2023-08-30T00:22:15;17.70;76.10
53962;DHT22;39868;53.398;6.564;2023-08-30T00:24:42;17.70;76.10
53962;DHT22;39868;53.398;6.564;2023-08-30T00:27:09;17.70;76.20
53962;DHT22;39868;53.398;6.564;2023-08-30T00:29:37;17.70;76.30
53962;DHT22;39868;53.398;6.564;2023-08-30T00:32:06;17.70;76.30
53962;DHT22;39868;53.398;6.564;2023-08-30T00:34:33;17.70;76.30
53962;DHT22;39868;53.398;6.564;2023-08-30T00:37:00;17.70;76.30
53962;DHT22;39868;53.398;6.564;2023-08-30T00:39:28;17.70;76.30
53962;DHT22;39868;53.398;6.564;2023-08-30T00:41:55;17.70;76.30
53962;DHT22;39868;53.398;6.564;2023-08-30T00:44:23;17.70;76.30
53962;DHT22;39868;53.398;6.564;2023-08-30T00:46:51;17.70;76.40
53962;DHT22;39868;53.398;6.564;2023-08-30T00:49:18;17.60;76.30
53962;DHT22;39868;53.398;6.564;2023-08-30T00:51:45;17.60;76.30
53962;DHT22;39868;53.398;6.564;2023-08-30T00:54:13;17.60;76.40
53962;DHT22;39868;53.398;6.564;2023-08-30T00:56:40;17.60;76.40
53962;DHT22;39868;53.398;6.564;2023-08-30T00:59:07;17.70;76.50
53962;DHT22;39868;53.398;6.564;2023-08-30T01:01:35;17.50;76.30
53962;DHT22;39868;53.398;6.564;2023-08-30T01:04:02;17.50;76.40
53962;DHT22;39868;53.398;6.564;2023-08-30T01:06:30;17.50;76.40
53962;DHT22;39868;53.398;6.564;2023-08-30T01:08:58;17.50;76.40
53962;DHT22;39868;53.398;6.564;2023-08-30T01:14:16;17.40;76.50
53962;DHT22;39868;53.398;6.564;2023-08-30T01:16:46;17.40;76.50
53962;DHT22;39868;53.398;6.564;2023-08-30T01:25:16;17.30;76.60
53962;DHT22;39868;53.398;6.564;2023-08-30T01:27:45;17.30;76.50
53962;DHT22;39868;53.398;6.564;2023-08-30T01:30:12;17.30;76.50
53962;DHT22;39868;53.398;6.564;2023-08-30T01:32:41;17.20;76.50
53962;DHT22;39868;53.398;6.564;2023-08-30T01:35:09;17.20;76.50
53962;DHT22;39868;53.398;6.564;2023-08-30T01:37:39;17.10;76.50
53962;DHT22;39868;53.398;6.564;2023-08-30T01:40:06;17.10;76.50
53962;DHT22;39868;53.398;6.564;2023-08-30T01:42:34;17.10;76.60
53962;DHT22;39868;53.398;6.564;2023-08-30T01:45:02;17.10;76.60
53962;DHT22;39868;53.398;6.564;2023-08-30T01:47:30;17.00;76.60
53962;DHT22;39868;53.398;6.564;2023-08-30T01:49:58;17.00;76.70
53962;DHT22;39868;53.398;6.564;2023-08-30T01:52:26;17.00;76.80
53962;DHT22;39868;53.398;6.564;2023-08-30T01:54:54;17.00;76.80
53962;DHT22;39868;53.398;6.564;2023-08-30T01:57:26;17.00;76.90
53962;DHT22;39868;53.398;6.564;2023-08-30T01:59:53;17.00;77.00
53962;DHT22;39868;53.398;6.564;2023-08-30T02:02:21;17.00;77.00
53962;DHT22;39868;53.398;6.564;2023-08-30T02:04:48;17.00;77.10
53962;DHT22;39868;53.398;6.564;2023-08-30T02:07:16;17.00;77.10
53962;DHT22;39868;53.398;6.564;2023-08-30T02:09:48;16.90;77.10
53962;DHT22;39868;53.398;6.564;2023-08-30T02:12:17;17.00;77.30
53962;DHT22;39868;53.398;6.564;2023-08-30T02:14:46;17.00;77.30
53962;DHT22;39868;53.398;6.564;2023-08-30T02:17:15;17.00;77.30
53962;DHT22;39868;53.398;6.564;2023-08-30T02:19:43;17.00;77.30
53962;DHT22;39868;53.398;6.564;2023-08-30T02:22:11;17.00;77.40
53962;DHT22;39868;53.398;6.564;2023-08-30T02:24:40;17.00;77.40
53962;DHT22;39868;53.398;6.564;2023-08-30T02:27:07;17.00;77.40
53962;DHT22;39868;53.398;6.564;2023-08-30T02:29:34;17.00;77.40
53962;DHT22;39868;53.398;6.564;2023-08-30T02:32:02;17.00;77.40
53962;DHT22;39868;53.398;6.564;2023-08-30T02:34:29;17.00;77.40
53962;DHT22;39868;53.398;6.564;2023-08-30T02:36:56;17.00;77.40
53962;DHT22;39868;53.398;6.564;2023-08-30T02:39:24;17.00;77.50
53962;DHT22;39868;53.398;6.564;2023-08-30T02:41:51;17.00;77.50
53962;DHT22;39868;53.398;6.564;2023-08-30T02:44:19;17.00;77.50
53962;DHT22;39868;53.398;6.564;2023-08-30T02:46:46;17.00;77.50
53962;DHT22;39868;53.398;6.564;2023-08-30T02:49:14;17.00;77.50
53962;DHT22;39868;53.398;6.564;2023-08-30T02:51:41;17.00;77.50
53962;DHT22;39868;53.398;6.564;2023-08-30T02:54:08;17.00;77.50
53962;DHT22;39868;53.398;6.564;2023-08-30T02:56:35;17.00;77.50
53962;DHT22;39868;53.398;6.564;2023-08-30T02:59:03;17.00;77.60
53962;DHT22;39868;53.398;6.564;2023-08-30T03:01:31;17.00;77.60
53962;DHT22;39868;53.398;6.564;2023-08-30T03:03:58;17.00;77.60
53962;DHT22;39868;53.398;6.564;2023-08-30T03:06:26;17.00;77.60
53962;DHT22;39868;53.398;6.564;2023-08-30T03:08:53;17.00;77.60
53962;DHT22;39868;53.398;6.564;2023-08-30T03:11:23;17.00;77.60
53962;DHT22;39868;53.398;6.564;2023-08-30T03:13:55;17.00;77.60
53962;DHT22;39868;53.398;6.564;2023-08-30T03:16:22;17.00;77.60
53962;DHT22;39868;53.398;6.564;2023-08-30T03:18:51;17.00;77.60
53962;DHT22;39868;53.398;6.564;2023-08-30T03:21:18;16.90;77.60
53962;DHT22;39868;53.398;6.564;2023-08-30T03:23:46;16.90;77.50
53962;DHT22;39868;53.398;6.564;2023-08-30T03:26:14;16.90;77.50
53962;DHT22;39868;53.398;6.564;2023-08-30T03:28:42;16.80;77.50
53962;DHT22;39868;53.398;6.564;2023-08-30T03:31:13;16.90;77.50
53962;DHT22;39868;53.398;6.564;2023-08-30T03:33:41;16.80;77.50
53962;DHT22;39868;53.398;6.564;2023-08-30T03:36:12;16.80;77.50
53962;DHT22;39868;53.398;6.564;2023-08-30T03:38:40;16.80;77.50
53962;DHT22;39868;53.398;6.564;2023-08-30T03:41:08;16.70;77.40
53962;DHT22;39868;53.398;6.564;2023-08-30T03:43:35;16.70;77.40
53962;DHT22;39868;53.398;6.564;2023-08-30T03:46:02;16.70;77.40
53962;DHT22;39868;53.398;6.564;2023-08-30T03:48:30;16.60;77.40
53962;DHT22;39868;53.398;6.564;2023-08-30T03:50:57;16.60;77.40
53962;DHT22;39868;53.398;6.564;2023-08-30T03:53:26;16.60;77.40
53962;DHT22;39868;53.398;6.564;2023-08-30T03:55:53;16.50;78.00
53962;DHT22;39868;53.398;6.564;2023-08-30T03:58:23;16.50;77.40
53962;DHT22;39868;53.398;6.564;2023-08-30T04:00:50;16.50;77.50
53962;DHT22;39868;53.398;6.564;2023-08-30T04:03:17;16.40;77.40
53962;DHT22;39868;53.398;6.564;2023-08-30T04:05:45;16.40;77.40
53962;DHT22;39868;53.398;6.564;2023-08-30T04:08:13;16.40;77.50
53962;DHT22;39868;53.398;6.564;2023-08-30T04:10:40;16.30;77.40
53962;DHT22;39868;53.398;6.564;2023-08-30T04:13:08;16.30;77.40
53962;DHT22;39868;53.398;6.564;2023-08-30T04:15:36;16.20;77.40
53962;DHT22;39868;53.398;6.564;2023-08-30T04:18:04;16.20;77.40
53962;DHT22;39868;53.398;6.564;2023-08-30T04:20:33;16.20;77.50
53962;DHT22;39868;53.398;6.564;2023-08-30T04:23:00;16.20;77.50
53962;DHT22;39868;53.398;6.564;2023-08-30T04:25:31;16.20;77.50
53962;DHT22;39868;53.398;6.564;2023-08-30T04:27:58;16.10;77.50
53962;DHT22;39868;53.398;6.564;2023-08-30T04:30:25;16.10;77.50
53962;DHT22;39868;53.398;6.564;2023-08-30T04:32:53;16.00;77.50
53962;DHT22;39868;53.398;6.564;2023-08-30T04:35:22;16.00;77.50
53962;DHT22;39868;53.398;6.564;2023-08-30T04:37:49;16.00;77.50
53962;DHT22;39868;53.398;6.564;2023-08-30T04:40:16;15.90;77.50
53962;DHT22;39868;53.398;6.564;2023-08-30T04:42:44;15.90;77.50
53962;DHT22;39868;53.398;6.564;2023-08-30T04:45:11;15.90;77.60
53962;DHT22;39868;53.398;6.564;2023-08-30T04:47:38;15.90;77.60
53962;DHT22;39868;53.398;6.564;2023-08-30T04:50:05;15.80;77.60
53962;DHT22;39868;53.398;6.564;2023-08-30T04:52:33;15.80;77.60
53962;DHT22;39868;53.398;6.564;2023-08-30T04:55:00;15.80;77.70
53962;DHT22;39868;53.398;6.564;2023-08-30T04:57:28;15.80;77.70
53962;DHT22;39868;53.398;6.564;2023-08-30T04:59:55;15.70;77.70
53962;DHT22;39868;53.398;6.564;2023-08-30T05:02:22;15.70;77.80
53962;DHT22;39868;53.398;6.564;2023-08-30T05:05:03;15.70;77.80
53962;DHT22;39868;53.398;6.564;2023-08-30T05:07:31;15.70;77.80
53962;DHT22;39868;53.398;6.564;2023-08-30T05:09:59;15.70;77.90
53962;DHT22;39868;53.398;6.564;2023-08-30T05:12:26;15.70;77.90
53962;DHT22;39868;53.398;6.564;2023-08-30T05:14:53;15.70;77.90
53962;DHT22;39868;53.398;6.564;2023-08-30T05:17:24;15.70;78.00
53962;DHT22;39868;53.398;6.564;2023-08-30T05:19:52;15.70;78.00
53962;DHT22;39868;53.398;6.564;2023-08-30T05:22:20;15.70;78.10
53962;DHT22;39868;53.398;6.564;2023-08-30T05:24:47;15.70;78.10
53962;DHT22;39868;53.398;6.564;2023-08-30T05:27:15;15.70;78.10
53962;DHT22;39868;53.398;6.564;2023-08-30T05:29:44;15.70;78.20
53962;DHT22;39868;53.398;6.564;2023-08-30T05:32:11;15.70;78.20
53962;DHT22;39868;53.398;6.564;2023-08-30T05:34:47;15.70;78.30
53962;DHT22;39868;53.398;6.564;2023-08-30T05:37:23;15.70;78.30
53962;DHT22;39868;53.398;6.564;2023-08-30T05:39:56;15.80;78.50
53962;DHT22;39868;53.398;6.564;2023-08-30T05:42:24;15.80;78.50
53962;DHT22;39868;53.398;6.564;2023-08-30T05:44:52;15.80;78.50
53962;DHT22;39868;53.398;6.564;2023-08-30T05:47:20;15.80;78.60
53962;DHT22;39868;53.398;6.564;2023-08-30T05:49:47;15.90;78.60
53962;DHT22;39868;53.398;6.564;2023-08-30T05:52:15;15.90;78.70
53962;DHT22;39868;53.398;6.564;2023-08-30T05:54:45;15.90;78.80
53962;DHT22;39868;53.398;6.564;2023-08-30T05:57:12;16.00;78.80
53962;DHT22;39868;53.398;6.564;2023-08-30T05:59:40;16.00;78.80
53962;DHT22;39868;53.398;6.564;2023-08-30T06:02:07;16.10;78.90
53962;DHT22;39868;53.398;6.564;2023-08-30T06:04:34;16.10;78.90
53962;DHT22;39868;53.398;6.564;2023-08-30T06:07:01;16.10;79.00
53962;DHT22;39868;53.398;6.564;2023-08-30T06:09:30;16.20;79.00
53962;DHT22;39868;53.398;6.564;2023-08-30T06:11:57;16.20;79.10
53962;DHT22;39868;53.398;6.564;2023-08-30T06:14:25;16.30;79.10
53962;DHT22;39868;53.398;6.564;2023-08-30T06:16:52;16.30;79.20
53962;DHT22;39868;53.398;6.564;2023-08-30T06:19:19;16.40;79.20
53962;DHT22;39868;53.398;6.564;2023-08-30T06:21:47;16.40;79.20
53962;DHT22;39868;53.398;6.564;2023-08-30T06:24:14;16.50;79.30
53962;DHT22;39868;53.398;6.564;2023-08-30T06:26:41;16.50;79.30
53962;DHT22;39868;53.398;6.564;2023-08-30T06:29:08;16.60;79.30
53962;DHT22;39868;53.398;6.564;2023-08-30T06:31:35;16.70;79.30
53962;DHT22;39868;53.398;6.564;2023-08-30T06:34:04;16.70;79.30
53962;DHT22;39868;53.398;6.564;2023-08-30T06:36:31;16.80;79.50
53962;DHT22;39868;53.398;6.564;2023-08-30T06:38:59;16.80;79.40
53962;DHT22;39868;53.398;6.564;2023-08-30T06:41:26;16.90;79.40
53962;DHT22;39868;53.398;6.564;2023-08-30T06:43:53;16.90;79.40
53962;DHT22;39868;53.398;6.564;2023-08-30T06:46:21;17.00;79.40
53962;DHT22;39868;53.398;6.564;2023-08-30T06:48:48;17.00;79.40
53962;DHT22;39868;53.398;6.564;2023-08-30T06:51:15;17.10;79.40
53962;DHT22;39868;53.398;6.564;2023-08-30T06:53:43;17.10;79.30
53962;DHT22;39868;53.398;6.564;2023-08-30T06:56:10;17.10;79.30
53962;DHT22;39868;53.398;6.564;2023-08-30T06:58:38;17.20;79.30
53962;DHT22;39868;53.398;6.564;2023-08-30T07:01:05;17.20;79.30
53962;DHT22;39868;53.398;6.564;2023-08-30T07:03:32;17.20;79.20
53962;DHT22;39868;53.398;6.564;2023-08-30T07:06:00;17.30;79.20
53962;DHT22;39868;53.398;6.564;2023-08-30T07:08:27;17.30;79.20
53962;DHT22;39868;53.398;6.564;2023-08-30T07:10:54;17.40;79.20
53962;DHT22;39868;53.398;6.564;2023-08-30T07:13:21;17.40;79.20
53962;DHT22;39868;53.398;6.564;2023-08-30T07:15:49;17.50;79.20
53962;DHT22;39868;53.398;6.564;2023-08-30T07:18:16;17.50;79.20
53962;DHT22;39868;53.398;6.564;2023-08-30T07:20:43;17.60;79.30
53962;DHT22;39868;53.398;6.564;2023-08-30T07:23:11;17.60;79.30
53962;DHT22;39868;53.398;6.564;2023-08-30T07:25:38;17.60;79.30
53962;DHT22;39868;53.398;6.564;2023-08-30T07:28:06;17.70;79.30
53962;DHT22;39868;53.398;6.564;2023-08-30T07:30:34;17.80;79.30
53962;DHT22;39868;53.398;6.564;2023-08-30T07:33:02;17.80;79.20
53962;DHT22;39868;53.398;6.564;2023-08-30T07:35:31;17.80;79.20
53962;DHT22;39868;53.398;6.564;2023-08-30T07:37:59;17.90;79.20
53962;DHT22;39868;53.398;6.564;2023-08-30T07:40:27;17.90;79.10
53962;DHT22;39868;53.398;6.564;2023-08-30T07:42:56;18.00;79.10
53962;DHT22;39868;53.398;6.564;2023-08-30T07:45:25;18.00;79.10
53962;DHT22;39868;53.398;6.564;2023-08-30T07:47:53;18.10;79.20
53962;DHT22;39868;53.398;6.564;2023-08-30T07:50:21;18.20;79.30
53962;DHT22;39868;53.398;6.564;2023-08-30T07:52:48;18.30;79.40
53962;DHT22;39868;53.398;6.564;2023-08-30T07:55:15;18.40;79.40
53962;DHT22;39868;53.398;6.564;2023-08-30T07:57:42;18.50;79.40
53962;DHT22;39868;53.398;6.564;2023-08-30T08:00:10;18.60;79.40
53962;DHT22;39868;53.398;6.564;2023-08-30T08:02:37;18.60;79.30
53962;DHT22;39868;53.398;6.564;2023-08-30T08:05:04;18.70;79.30
53962;DHT22;39868;53.398;6.564;2023-08-30T08:07:32;18.80;79.20
53962;DHT22;39868;53.398;6.564;2023-08-30T08:09:59;18.90;79.10
53962;DHT22;39868;53.398;6.564;2023-08-30T08:12:26;18.90;79.00
53962;DHT22;39868;53.398;6.564;2023-08-30T08:14:54;19.00;78.90
53962;DHT22;39868;53.398;6.564;2023-08-30T08:17:21;19.00;78.80
53962;DHT22;39868;53.398;6.564;2023-08-30T08:19:48;19.00;78.60
53962;DHT22;39868;53.398;6.564;2023-08-30T08:22:16;19.10;78.60
53962;DHT22;39868;53.398;6.564;2023-08-30T08:24:43;19.10;78.40
53962;DHT22;39868;53.398;6.564;2023-08-30T08:27:13;19.10;78.30
53962;DHT22;39868;53.398;6.564;2023-08-30T08:29:41;19.10;78.20
53962;DHT22;39868;53.398;6.564;2023-08-30T08:32:08;19.10;78.10
53962;DHT22;39868;53.398;6.564;2023-08-30T08:34:36;19.10;78.00
53962;DHT22;39868;53.398;6.564;2023-08-30T08:37:03;19.10;78.00
53962;DHT22;39868;53.398;6.564;2023-08-30T08:39:30;19.20;77.90
53962;DHT22;39868;53.398;6.564;2023-08-30T08:41:57;19.20;78.00
53962;DHT22;39868;53.398;6.564;2023-08-30T08:44:26;19.20;77.90
53962;DHT22;39868;53.398;6.564;2023-08-30T08:46:53;19.20;77.80
53962;DHT22;39868;53.398;6.564;2023-08-30T08:49:24;19.20;77.80
53962;DHT22;39868;53.398;6.564;2023-08-30T08:51:55;19.30;77.90
53962;DHT22;39868;53.398;6.564;2023-08-30T08:54:23;19.30;77.90
53962;DHT22;39868;53.398;6.564;2023-08-30T08:56:50;19.30;77.90
53962;DHT22;39868;53.398;6.564;2023-08-30T08:59:18;19.40;77.90
53962;DHT22;39868;53.398;6.564;2023-08-30T09:01:45;19.40;77.90
53962;DHT22;39868;53.398;6.564;2023-08-30T09:04:13;19.50;77.90
53962;DHT22;39868;53.398;6.564;2023-08-30T09:06:40;19.50;77.80
53962;DHT22;39868;53.398;6.564;2023-08-30T09:09:10;19.60;77.80
53962;DHT22;39868;53.398;6.564;2023-08-30T09:11:38;19.60;77.80
53962;DHT22;39868;53.398;6.564;2023-08-30T09:14:16;19.60;77.70
53962;DHT22;39868;53.398;6.564;2023-08-30T09:16:59;19.70;77.70
53962;DHT22;39868;53.398;6.564;2023-08-30T09:19:30;19.70;77.60
53962;DHT22;39868;53.398;6.564;2023-08-30T09:21:58;19.70;77.50
53962;DHT22;39868;53.398;6.564;2023-08-30T09:24:25;19.80;77.50
53962;DHT22;39868;53.398;6.564;2023-08-30T09:26:53;19.80;77.40
53962;DHT22;39868;53.398;6.564;2023-08-30T09:29:21;19.80;77.50
53962;DHT22;39868;53.398;6.564;2023-08-30T09:31:51;19.90;77.30
53962;DHT22;39868;53.398;6.564;2023-08-30T09:34:23;19.90;77.30
53962;DHT22;39868;53.398;6.564;2023-08-30T09:36:51;19.90;77.30
53962;DHT22;39868;53.398;6.564;2023-08-30T09:39:19;19.90;77.10
53962;DHT22;39868;53.398;6.564;2023-08-30T09:41:47;19.90;77.00
53962;DHT22;39868;53.398;6.564;2023-08-30T09:44:15;19.90;77.00
53962;DHT22;39868;53.398;6.564;2023-08-30T09:46:46;19.90;76.90
53962;DHT22;39868;53.398;6.564;2023-08-30T09:49:20;19.90;76.90
53962;DHT22;39868;53.398;6.564;2023-08-30T09:51:49;19.90;76.80
53962;DHT22;39868;53.398;6.564;2023-08-30T09:54:23;19.90;76.80
53962;DHT22;39868;53.398;6.564;2023-08-30T09:56:53;19.90;76.80
53962;DHT22;39868;53.398;6.564;2023-08-30T09:59:23;20.00;76.80
53962;DHT22;39868;53.398;6.564;2023-08-30T10:01:51;20.00;76.80
53962;DHT22;39868;53.398;6.564;2023-08-30T10:04:20;20.00;76.80
53962;DHT22;39868;53.398;6.564;2023-08-30T10:06:47;20.00;76.70
53962;DHT22;39868;53.398;6.564;2023-08-30T10:09:15;20.00;76.70
53962;DHT22;39868;53.398;6.564;2023-08-30T10:11:46;20.10;76.70
53962;DHT22;39868;53.398;6.564;2023-08-30T10:14:14;20.10;76.60
53962;DHT22;39868;53.398;6.564;2023-08-30T10:16:48;20.20;76.60
53962;DHT22;39868;53.398;6.564;2023-08-30T10:19:16;20.20;76.60
53962;DHT22;39868;53.398;6.564;2023-08-30T10:21:43;20.20;76.60
53962;DHT22;39868;53.398;6.564;2023-08-30T10:24:14;20.20;76.50
53962;DHT22;39868;53.398;6.564;2023-08-30T10:26:58;20.20;76.50
53962;DHT22;39868;53.398;6.564;2023-08-30T10:29:27;20.20;76.40
53962;DHT22;39868;53.398;6.564;2023-08-30T10:31:55;20.30;76.40
53962;DHT22;39868;53.398;6.564;2023-08-30T10:34:22;20.30;76.40
53962;DHT22;39868;53.398;6.564;2023-08-30T10:36:59;20.30;76.30
53962;DHT22;39868;53.398;6.564;2023-08-30T10:39:37;20.30;76.20
53962;DHT22;39868;53.398;6.564;2023-08-30T10:42:11;20.30;76.20
53962;DHT22;39868;53.398;6.564;2023-08-30T10:47:27;20.30;76.10
53962;DHT22;39868;53.398;6.564;2023-08-30T10:49:59;20.30;76.10
53962;DHT22;39868;53.398;6.564;2023-08-30T10:52:27;20.30;76.00
53962;DHT22;39868;53.398;6.564;2023-08-30T10:55:10;20.30;76.00
53962;DHT22;39868;53.398;6.564;2023-08-30T10:57:42;20.30;76.00
53962;DHT22;39868;53.398;6.564;2023-08-30T11:02:37;20.30;76.00
53962;DHT22;39868;53.398;6.564;2023-08-30T11:05:05;20.30;76.00
53962;DHT22;39868;53.398;6.564;2023-08-30T11:07:33;20.30;76.50
53962;DHT22;39868;53.398;6.564;2023-08-30T11:10:01;20.30;75.90
53962;DHT22;39868;53.398;6.564;2023-08-30T11:12:28;20.30;75.90
53962;DHT22;39868;53.398;6.564;2023-08-30T11:14:57;20.30;75.90
53962;DHT22;39868;53.398;6.564;2023-08-30T11:17:25;20.30;75.90
53962;DHT22;39868;53.398;6.564;2023-08-30T11:20:15;20.40;76.00
53962;DHT22;39868;53.398;6.564;2023-08-30T11:22:41;20.40;76.00
53962;DHT22;39868;53.398;6.564;2023-08-30T11:25:09;20.40;76.00
53962;DHT22;39868;53.398;6.564;2023-08-30T11:27:37;20.50;76.10
53962;DHT22;39868;53.398;6.564;2023-08-30T11:30:05;20.50;76.00
53962;DHT22;39868;53.398;6.564;2023-08-30T11:32:33;20.50;75.90
53962;DHT22;39868;53.398;6.564;2023-08-30T11:35:02;20.50;75.90
53962;DHT22;39868;53.398;6.564;2023-08-30T11:37:29;20.60;75.90
53962;DHT22;39868;53.398;6.564;2023-08-30T11:39:57;20.60;75.80
53962;DHT22;39868;53.398;6.564;2023-08-30T11:42:24;20.70;75.90
53962;DHT22;39868;53.398;6.564;2023-08-30T11:44:52;20.70;75.90
53962;DHT22;39868;53.398;6.564;2023-08-30T11:49:48;20.80;75.80
53962;DHT22;39868;53.398;6.564;2023-08-30T11:52:16;20.80;75.70
53962;DHT22;39868;53.398;6.564;2023-08-30T11:54:45;20.80;75.60
53962;DHT22;39868;53.398;6.564;2023-08-30T11:57:13;20.80;75.60
53962;DHT22;39868;53.398;6.564;2023-08-30T11:59:41;20.80;75.50
53962;DHT22;39868;53.398;6.564;2023-08-30T12:02:13;20.80;75.50
53962;DHT22;39868;53.398;6.564;2023-08-30T12:04:41;20.80;75.30
53962;DHT22;39868;53.398;6.564;2023-08-30T12:07:09;20.70;75.30
53962;DHT22;39868;53.398;6.564;2023-08-30T12:09:38;20.70;75.20
53962;DHT22;39868;53.398;6.564;2023-08-30T12:12:05;20.70;75.10
53962;DHT22;39868;53.398;6.564;2023-08-30T12:14:34;20.70;75.10
53962;DHT22;39868;53.398;6.564;2023-08-30T12:17:01;20.60;75.00
53962;DHT22;39868;53.398;6.564;2023-08-30T12:19:34;20.60;75.00
53962;DHT22;39868;53.398;6.564;2023-08-30T12:22:04;20.60;75.00
53962;DHT22;39868;53.398;6.564;2023-08-30T12:24:44;20.60;75.10
53962;DHT22;39868;53.398;6.564;2023-08-30T12:27:12;20.50;75.00
53962;DHT22;39868;53.398;6.564;2023-08-30T12:29:39;20.50;75.10
53962;DHT22;39868;53.398;6.564;2023-08-30T12:32:07;20.50;75.10
53962;DHT22;39868;53.398;6.564;2023-08-30T12:34:34;20.50;75.20
53962;DHT22;39868;53.398;6.564;2023-08-30T12:37:03;20.50;75.30
53962;DHT22;39868;53.398;6.564;2023-08-30T12:39:31;20.50;75.30
53962;DHT22;39868;53.398;6.564;2023-08-30T12:41:59;20.50;75.30
53962;DHT22;39868;53.398;6.564;2023-08-30T12:44:26;20.50;75.30
53962;DHT22;39868;53.398;6.564;2023-08-30T12:46:53;20.50;75.20
53962;DHT22;39868;53.398;6.564;2023-08-30T12:49:21;20.50;75.20
53962;DHT22;39868;53.398;6.564;2023-08-30T12:51:48;20.60;75.30
53962;DHT22;39868;53.398;6.564;2023-08-30T12:54:15;20.60;75.30
53962;DHT22;39868;53.398;6.564;2023-08-30T12:56:42;20.50;75.20
53962;DHT22;39868;53.398;6.564;2023-08-30T12:59:10;20.50;75.10
53962;DHT22;39868;53.398;6.564;2023-08-30T13:01:37;20.50;75.10
53962;DHT22;39868;53.398;6.564;2023-08-30T13:04:07;20.50;75.10
53962;DHT22;39868;53.398;6.564;2023-08-30T13:06:34;20.50;75.00
53962;DHT22;39868;53.398;6.564;2023-08-30T13:09:02;20.40;75.00
53962;DHT22;39868;53.398;6.564;2023-08-30T13:11:30;20.40;75.00
53962;DHT22;39868;53.398;6.564;2023-08-30T13:13:59;20.40;75.00
53962;DHT22;39868;53.398;6.564;2023-08-30T13:16:26;20.30;74.90
53962;DHT22;39868;53.398;6.564;2023-08-30T13:18:54;20.30;75.00
53962;DHT22;39868;53.398;6.564;2023-08-30T13:21:21;20.20;75.00
53962;DHT22;39868;53.398;6.564;2023-08-30T13:24:05;20.20;74.90
53962;DHT22;39868;53.398;6.564;2023-08-30T13:26:32;20.10;74.90
53962;DHT22;39868;53.398;6.564;2023-08-30T13:28:59;20.10;74.90
53962;DHT22;39868;53.398;6.564;2023-08-30T13:31:29;20.00;74.90
53962;DHT22;39868;53.398;6.564;2023-08-30T13:33:57;20.00;74.90
53962;DHT22;39868;53.398;6.564;2023-08-30T13:36:25;20.00;74.90
53962;DHT22;39868;53.398;6.564;2023-08-30T13:38:52;19.80;74.80
53962;DHT22;39868;53.398;6.564;2023-08-30T13:41:20;19.80;74.80
53962;DHT22;39868;53.398;6.564;2023-08-30T13:43:47;19.70;74.80
53962;DHT22;39868;53.398;6.564;2023-08-30T13:46:14;19.60;74.80
53962;DHT22;39868;53.398;6.564;2023-08-30T13:48:42;19.50;74.80
53962;DHT22;39868;53.398;6.564;2023-08-30T13:51:09;19.50;74.90
53962;DHT22;39868;53.398;6.564;2023-08-30T13:53:36;19.40;74.90
53962;DHT22;39868;53.398;6.564;2023-08-30T13:56:04;19.30;75.00
53962;DHT22;39868;53.398;6.564;2023-08-30T13:58:31;19.30;75.10
53962;DHT22;39868;53.398;6.564;2023-08-30T14:00:59;19.20;75.10
53962;DHT22;39868;53.398;6.564;2023-08-30T14:03:26;19.10;75.20
53962;DHT22;39868;53.398;6.564;2023-08-30T14:05:53;19.10;75.20
53962;DHT22;39868;53.398;6.564;2023-08-30T14:08:20;19.00;75.30
53962;DHT22;39868;53.398;6.564;2023-08-30T14:10:48;18.90;75.40
53962;DHT22;39868;53.398;6.564;2023-08-30T14:13:15;18.90;75.50
53962;DHT22;39868;53.398;6.564;2023-08-30T14:15:42;18.80;75.50
53962;DHT22;39868;53.398;6.564;2023-08-30T14:18:10;18.80;75.70
53962;DHT22;39868;53.398;6.564;2023-08-30T14:20:38;18.80;75.80
53962;DHT22;39868;53.398;6.564;2023-08-30T14:23:05;18.70;75.90
53962;DHT22;39868;53.398;6.564;2023-08-30T14:25:34;18.70;76.10
53962;DHT22;39868;53.398;6.564;2023-08-30T14:28:02;18.70;76.20
53962;DHT22;39868;53.398;6.564;2023-08-30T14:30:30;18.70;76.30
53962;DHT22;39868;53.398;6.564;2023-08-30T14:32:57;18.70;76.40
53962;DHT22;39868;53.398;6.564;2023-08-30T14:35:24;18.70;76.60
53962;DHT22;39868;53.398;6.564;2023-08-30T14:37:52;18.70;76.60
53962;DHT22;39868;53.398;6.564;2023-08-30T14:40:19;18.70;76.70
53962;DHT22;39868;53.398;6.564;2023-08-30T14:42:47;18.70;76.80
53962;DHT22;39868;53.398;6.564;2023-08-30T14:45:14;18.80;76.90
53962;DHT22;39868;53.398;6.564;2023-08-30T14:47:41;18.80;77.00
53962;DHT22;39868;53.398;6.564;2023-08-30T14:50:09;18.80;77.10
53962;DHT22;39868;53.398;6.564;2023-08-30T14:52:36;18.80;77.10
53962;DHT22;39868;53.398;6.564;2023-08-30T14:55:03;18.90;77.20
53962;DHT22;39868;53.398;6.564;2023-08-30T14:57:31;18.90;77.30
53962;DHT22;39868;53.398;6.564;2023-08-30T14:59:58;19.00;77.40
53962;DHT22;39868;53.398;6.564;2023-08-30T15:02:26;19.00;77.50
53962;DHT22;39868;53.398;6.564;2023-08-30T15:04:53;19.10;77.60
53962;DHT22;39868;53.398;6.564;2023-08-30T15:07:20;19.10;77.60
53962;DHT22;39868;53.398;6.564;2023-08-30T15:09:47;19.10;77.60
53962;DHT22;39868;53.398;6.564;2023-08-30T15:12:15;19.10;77.60
53962;DHT22;39868;53.398;6.564;2023-08-30T15:14:42;19.20;77.70
53962;DHT22;39868;53.398;6.564;2023-08-30T15:17:10;19.30;77.80
53962;DHT22;39868;53.398;6.564;2023-08-30T15:19:37;19.30;77.90
53962;DHT22;39868;53.398;6.564;2023-08-30T15:22:04;19.40;78.00
53962;DHT22;39868;53.398;6.564;2023-08-30T15:24:32;19.40;78.00
53962;DHT22;39868;53.398;6.564;2023-08-30T15:26:59;19.50;78.00
53962;DHT22;39868;53.398;6.564;2023-08-30T15:29:26;19.50;77.90
53962;DHT22;39868;53.398;6.564;2023-08-30T15:31:54;19.50;77.90
53962;DHT22;39868;53.398;6.564;2023-08-30T15:34:21;19.50;77.80
53962;DHT22;39868;53.398;6.564;2023-08-30T15:36:48;19.50;77.80
53962;DHT22;39868;53.398;6.564;2023-08-30T15:39:15;19.60;77.90
53962;DHT22;39868;53.398;6.564;2023-08-30T15:41:44;19.70;78.10
53962;DHT22;39868;53.398;6.564;2023-08-30T15:44:12;19.70;78.20
53962;DHT22;39868;53.398;6.564;2023-08-30T15:46:39;19.70;78.20
53962;DHT22;39868;53.398;6.564;2023-08-30T15:49:07;19.80;78.20
53962;DHT22;39868;53.398;6.564;2023-08-30T15:51:35;19.80;78.20